Portada
METAR-TAF:

METAR-TAF

Aeroports :

Rafha, Aràbia Saudita

latitud: 29-37N, longitud: 043-29E, altitud: 449 m

Observació

L'informe es va fer fa 1 hora i 1 minuts, a les 07:00 UTC
Vent 8 kt del Nord
Temperatura 34°C
Humitat 14%
Pressió 1013 hPa
Visibilitat 10 km o més
sense núvols per sota de 1500 mi sense presència de cumulonimbus.

METAR: OERF 210700Z 36008KT CAVOK 34/03 Q1013 NOSIG

Hora: 11:01 (08:01 UTC)

Pronòstic

L'informe es va fer fa 9 hores i 1 minuts, a les 23:00 UTC
Pronòstic vàlid del 21 a les 00 UTC al 22 a les 06 UTC
Vent 3 kt amb direcció variable
Visibilitat 10 km o més
sense núvols per sota de 1500 mi sense presència de cumulonimbus.
Evolucionant progressivament
l' 21 a les 06 UTC al 21 a les 08 UTC
Vent 14 kt del Nord/Nord-Oest
Visibilitat: 7000 m
Evolucionant progressivament
l' 21 a les 18 UTC al 21 a les 20 UTC
Vent 5 kt del Nord

TAF: OERF 202300Z 2100/2206 VRB03KT CAVOK BECMG 2106/2108 34014KT 7000 NSC BECMG 2118/2120 35005KT

Observacions i pronòstics meteorològics de més de 4000 aeroports (METAR i TAF).

Les estacions disponibles són els punts grocs i vermells al mapa.

Posi el ratolí al punt desitjat per veure el nom de l'estació.

Feu clic per veure les observacions i els pronòstics meteorològics.

Per canviar el mapa: feu clic els botons verds amb una creu de color negre per apropar; al botó verd amb un guió per allunyar la imatge; o en les fletxes verdes per a mapes adjacents.


METAR-TAF: